createdAt,value
2018-09-19T00:00:04.244Z,3.60
2018-09-19T00:01:04.179Z,4.40
2018-09-19T00:02:04.123Z,4.40
2018-09-19T00:03:04.063Z,4.80
2018-09-19T00:04:04.000Z,3.40
2018-09-19T00:05:03.945Z,4.20
2018-09-19T00:06:03.883Z,5.00
2018-09-19T00:07:03.820Z,3.60
2018-09-19T00:08:03.765Z,3.70
2018-09-19T00:09:03.707Z,4.80
2018-09-19T00:10:03.647Z,3.80
2018-09-19T00:11:03.586Z,4.00
2018-09-19T00:12:03.533Z,4.40
2018-09-19T00:13:03.468Z,3.80
2018-09-19T00:14:03.411Z,3.80
2018-09-19T00:15:03.355Z,3.50
2018-09-19T00:16:03.286Z,3.50
2018-09-19T00:17:03.228Z,3.50
2018-09-19T00:18:03.166Z,3.80
2018-09-19T00:19:03.115Z,3.80
2018-09-19T00:20:03.081Z,3.40
2018-09-19T00:21:02.987Z,3.50
2018-09-19T00:22:02.930Z,3.50
2018-09-19T00:23:02.882Z,3.80
2018-09-19T00:24:02.808Z,4.20
2018-09-19T00:25:02.751Z,4.30
2018-09-19T00:26:02.692Z,4.20
2018-09-19T00:27:02.646Z,3.60
2018-09-19T00:28:02.580Z,4.20
2018-09-19T00:29:02.558Z,4.40
2018-09-19T00:30:02.454Z,4.00
2018-09-19T00:31:02.394Z,3.80
2018-09-19T00:32:02.332Z,3.60
2018-09-19T00:33:02.273Z,4.60
2018-09-19T00:34:02.213Z,4.00
2018-09-19T00:35:02.155Z,3.80
2018-09-19T00:36:02.095Z,4.50
2018-09-19T00:37:02.036Z,5.00
2018-09-19T00:38:01.978Z,4.00
2018-09-19T00:39:01.915Z,4.00
2018-09-19T00:40:01.853Z,4.10
2018-09-19T00:41:01.796Z,4.00
2018-09-19T00:42:01.736Z,6.10
2018-09-19T00:43:01.682Z,4.50
2018-09-19T00:44:01.616Z,5.70
2018-09-19T00:45:01.555Z,5.90
2018-09-19T00:46:01.496Z,5.30
2018-09-19T00:47:01.441Z,4.10
2018-09-19T00:48:01.375Z,4.10
2018-09-19T00:49:01.316Z,4.50
2018-09-19T00:50:01.256Z,4.10
2018-09-19T00:51:01.206Z,4.30
2018-09-19T00:52:01.138Z,4.10
2018-09-19T00:53:01.078Z,4.30
2018-09-19T00:54:01.022Z,4.80
2018-09-19T00:55:00.956Z,4.50
2018-09-19T00:56:00.920Z,4.10
2018-09-19T00:57:00.839Z,4.30
2018-09-19T00:58:00.779Z,5.70
2018-09-19T00:59:00.715Z,5.10
2018-09-19T01:00:00.656Z,3.80
2018-09-19T01:01:00.597Z,4.20
2018-09-19T01:02:00.535Z,4.60
2018-09-19T01:03:00.479Z,5.10
2018-09-19T01:04:00.416Z,4.00
2018-09-19T01:05:00.383Z,4.90
2018-09-19T01:06:00.292Z,5.40
2018-09-19T01:07:00.235Z,5.00
2018-09-19T01:08:00.177Z,4.50
2018-09-19T01:09:00.120Z,5.00
2018-09-19T01:10:00.055Z,4.70
2018-09-19T01:10:59.996Z,4.80
2018-09-19T01:11:59.935Z,5.10
2018-09-19T01:12:59.876Z,6.80
2018-09-19T01:13:59.817Z,5.40
2018-09-19T01:14:59.756Z,4.50
2018-09-19T01:15:59.704Z,5.30
2018-09-19T01:16:59.645Z,4.70
2018-09-19T01:17:59.574Z,7.30
2018-09-19T01:18:59.511Z,5.10
2018-09-19T01:19:59.458Z,4.40
2018-09-19T01:20:59.397Z,4.50
2018-09-19T01:21:59.340Z,4.80
2018-09-19T01:22:59.276Z,4.50
2018-09-19T01:23:59.213Z,4.30
2018-09-19T01:24:59.153Z,4.40
2018-09-19T01:25:59.095Z,5.00
2018-09-19T01:26:59.034Z,4.60
2018-09-19T01:27:58.975Z,5.90
2018-09-19T01:28:58.911Z,5.00
2018-09-19T01:29:58.856Z,4.70
2018-09-19T01:30:58.790Z,4.90
2018-09-19T01:31:58.733Z,5.70
2018-09-19T01:32:58.673Z,4.30
2018-09-19T01:33:58.612Z,5.00
2018-09-19T01:34:58.551Z,4.80
2018-09-19T01:35:58.509Z,4.90
2018-09-19T01:36:58.431Z,4.90
2018-09-19T01:37:58.373Z,4.60
2018-09-19T01:38:58.313Z,5.10
2018-09-19T01:39:58.249Z,4.60
2018-09-19T01:40:58.190Z,4.90
2018-09-19T01:41:58.128Z,4.50
2018-09-19T01:42:58.079Z,5.10
2018-09-19T01:43:58.012Z,5.90
2018-09-19T01:44:57.953Z,5.20
2018-09-19T01:45:57.890Z,4.70
2018-09-19T01:46:57.855Z,4.60
2018-09-19T01:47:57.769Z,4.80
2018-09-19T01:48:57.711Z,4.50
2018-09-19T01:49:57.649Z,4.50
2018-09-19T01:50:57.588Z,4.60
2018-09-19T01:51:57.548Z,5.40
2018-09-19T01:52:57.473Z,4.80
2018-09-19T01:53:57.404Z,4.50
2018-09-19T01:54:57.351Z,5.20
2018-09-19T01:55:57.287Z,4.60
2018-09-19T01:56:57.232Z,5.20
2018-09-19T01:57:57.166Z,5.10
2018-09-19T01:58:57.106Z,5.00
2018-09-19T01:59:57.041Z,5.30
2018-09-19T02:00:56.988Z,4.80
2018-09-19T02:01:56.926Z,4.30
2018-09-19T02:02:56.869Z,5.30
2018-09-19T02:03:56.804Z,6.00
2018-09-19T02:04:56.745Z,5.00
2018-09-19T02:05:56.683Z,5.00
2018-09-19T02:06:56.624Z,5.10
2018-09-19T02:07:56.567Z,4.80
2018-09-19T02:08:56.507Z,5.80
2018-09-19T02:09:56.443Z,5.50
2018-09-19T02:10:56.382Z,6.80
2018-09-19T02:11:56.322Z,5.10
2018-09-19T02:12:56.264Z,5.50
2018-09-19T02:13:56.203Z,4.80
2018-09-19T02:14:56.145Z,4.60
2018-09-19T02:15:56.080Z,5.70
2018-09-19T02:16:56.025Z,4.60
2018-09-19T02:17:55.964Z,5.40
2018-09-19T02:18:55.902Z,5.20
2018-09-19T02:19:55.842Z,5.20
2018-09-19T02:20:55.795Z,4.80
2018-09-19T02:21:55.720Z,5.60
2018-09-19T02:22:55.662Z,6.10
2018-09-19T02:23:55.602Z,5.60
2018-09-19T02:24:55.540Z,5.00
2018-09-19T02:25:55.480Z,5.40
2018-09-19T02:26:55.420Z,5.90
2018-09-19T02:27:55.357Z,4.90
2018-09-19T02:28:55.298Z,5.70
2018-09-19T02:29:55.239Z,6.70
2018-09-19T02:30:55.177Z,5.10
2018-09-19T02:31:55.117Z,5.50
2018-09-19T02:32:55.062Z,5.00
2018-09-19T02:33:54.997Z,5.10
2018-09-19T02:34:54.939Z,7.00
2018-09-19T02:35:54.870Z,5.20
2018-09-19T02:36:54.816Z,5.30
2018-09-19T02:37:54.795Z,6.10
2018-09-19T02:38:54.696Z,5.40
2018-09-19T02:39:54.686Z,5.50
2018-09-19T02:40:54.583Z,6.40
2018-09-19T02:41:54.534Z,5.30
2018-09-19T02:42:54.455Z,6.50
2018-09-19T02:43:54.434Z,5.20
2018-09-19T02:44:54.346Z,6.60
2018-09-19T02:45:54.282Z,6.10
2018-09-19T02:46:54.225Z,7.50
2018-09-19T02:47:54.148Z,5.80
2018-09-19T02:48:54.155Z,5.10
2018-09-19T02:49:54.032Z,5.60
2018-09-19T02:50:53.999Z,5.50
2018-09-19T02:51:53.945Z,6.20
2018-09-19T02:52:53.851Z,5.30
2018-09-19T02:53:53.791Z,7.30
2018-09-19T02:54:53.743Z,5.30
2018-09-19T02:55:53.679Z,5.40
2018-09-19T02:56:53.613Z,5.70
2018-09-19T02:57:53.582Z,5.60
2018-09-19T02:58:53.510Z,6.20
2018-09-19T02:59:53.427Z,6.30
2018-09-19T03:00:53.377Z,5.60
2018-09-19T03:01:53.307Z,5.60
2018-09-19T03:02:53.247Z,5.90
2018-09-19T03:03:53.188Z,7.10
2018-09-19T03:04:53.127Z,6.20
2018-09-19T03:05:53.066Z,5.90
2018-09-19T03:06:53.051Z,6.10
2018-09-19T03:07:52.948Z,5.80
2018-09-19T03:08:52.887Z,5.90
2018-09-19T03:09:52.837Z,7.40
2018-09-19T03:10:52.770Z,5.90
2018-09-19T03:11:52.714Z,5.50
2018-09-19T03:12:52.644Z,5.30
2018-09-19T03:13:52.590Z,5.90
2018-09-19T03:14:52.535Z,5.60
2018-09-19T03:15:52.460Z,6.30
2018-09-19T03:17:52.339Z,5.80
2018-09-19T03:18:52.283Z,5.40
2018-09-19T03:19:52.221Z,5.60
2018-09-19T03:20:52.159Z,6.90
2018-09-19T03:21:52.098Z,6.40
2018-09-19T03:22:52.046Z,6.70
2018-09-19T03:23:51.974Z,5.70
2018-09-19T03:24:51.918Z,5.80
2018-09-19T03:25:51.858Z,5.80
2018-09-19T03:26:51.796Z,6.60
2018-09-19T03:27:51.740Z,6.20
2018-09-19T03:28:51.678Z,6.60
2018-09-19T03:29:51.615Z,5.70
2018-09-19T03:30:51.561Z,6.50
2018-09-19T03:31:51.493Z,7.50
2018-09-19T03:32:51.433Z,6.40
2018-09-19T03:33:51.373Z,5.90
2018-09-19T03:34:51.313Z,5.90
2018-09-19T03:35:51.253Z,6.10
2018-09-19T03:36:51.190Z,5.90
2018-09-19T03:37:51.132Z,6.80
2018-09-19T03:38:51.069Z,6.90
2018-09-19T03:39:51.007Z,5.80
2018-09-19T03:40:50.947Z,6.20
2018-09-19T03:41:50.893Z,6.80
2018-09-19T03:42:50.827Z,6.60
2018-09-19T03:43:50.766Z,6.30
2018-09-19T03:44:50.705Z,6.30
2018-09-19T03:45:50.646Z,7.80
2018-09-19T03:46:50.585Z,6.60
2018-09-19T03:47:50.531Z,6.50
2018-09-19T03:48:50.467Z,6.10
2018-09-19T03:49:50.405Z,6.20
2018-09-19T03:50:50.344Z,7.10
2018-09-19T03:51:50.281Z,6.70
2018-09-19T03:52:50.222Z,6.20
2018-09-19T03:53:50.163Z,7.50
2018-09-19T03:54:50.101Z,8.80
2018-09-19T03:55:50.039Z,7.50
2018-09-19T03:56:49.981Z,7.00
2018-09-19T03:57:49.919Z,7.50
2018-09-19T03:58:49.856Z,6.00
2018-09-19T03:59:49.799Z,6.80
2018-09-19T04:00:49.750Z,7.00
2018-09-19T04:01:49.692Z,7.30
2018-09-19T04:02:49.660Z,6.20
2018-09-19T04:03:49.559Z,5.90
2018-09-19T04:04:49.495Z,6.90
2018-09-19T04:05:49.432Z,6.30
2018-09-19T04:06:49.371Z,7.90
2018-09-19T04:07:49.313Z,7.60
2018-09-19T04:08:49.257Z,6.60
2018-09-19T04:09:49.191Z,8.10
2018-09-19T04:10:49.130Z,6.50
2018-09-19T04:11:49.066Z,6.60
2018-09-19T04:12:49.017Z,7.00
2018-09-19T04:13:48.943Z,6.20
2018-09-19T04:14:48.889Z,6.30
2018-09-19T04:15:48.824Z,5.90
2018-09-19T04:16:48.765Z,7.10
2018-09-19T04:17:48.793Z,6.30
2018-09-19T04:18:48.651Z,6.00
2018-09-19T04:19:48.580Z,7.10
2018-09-19T04:20:48.523Z,8.10
2018-09-19T04:21:48.463Z,6.20
2018-09-19T04:22:48.401Z,6.90
2018-09-19T04:23:48.341Z,6.90
2018-09-19T04:24:48.276Z,6.10
2018-09-19T04:25:48.218Z,6.30
2018-09-19T04:26:48.153Z,7.00
2018-09-19T04:27:48.101Z,8.70
2018-09-19T04:28:48.034Z,6.90
2018-09-19T04:29:47.981Z,6.70
2018-09-19T04:30:47.909Z,7.10
2018-09-19T04:31:47.856Z,7.10
2018-09-19T04:32:47.798Z,7.30
2018-09-19T04:33:47.733Z,8.10
2018-09-19T04:34:47.673Z,6.30
2018-09-19T04:35:47.610Z,7.80
2018-09-19T04:36:47.549Z,6.70
2018-09-19T04:37:47.488Z,7.60
2018-09-19T04:38:47.427Z,7.40
2018-09-19T04:39:47.386Z,7.70
2018-09-19T04:40:47.307Z,8.20
2018-09-19T04:41:47.246Z,8.30
2018-09-19T04:42:47.191Z,9.10
2018-09-19T04:43:47.123Z,6.70
2018-09-19T04:44:47.064Z,7.30
2018-09-19T04:45:47.006Z,6.10
2018-09-19T04:46:46.944Z,7.50
2018-09-19T04:47:46.951Z,9.20
2018-09-19T04:48:46.822Z,8.40
2018-09-19T04:49:46.768Z,8.40
2018-09-19T04:50:46.700Z,6.70
2018-09-19T04:51:46.649Z,8.20
2018-09-19T04:52:46.582Z,6.80
2018-09-19T04:53:46.519Z,7.40
2018-09-19T04:54:46.458Z,8.00
2018-09-19T04:55:46.399Z,7.40
2018-09-19T04:56:46.340Z,6.80
2018-09-19T04:57:46.275Z,6.90
2018-09-19T04:58:46.219Z,7.90
2018-09-19T04:59:46.154Z,7.60
2018-09-19T05:00:46.095Z,8.30
2018-09-19T05:01:46.040Z,8.40
2018-09-19T05:02:45.972Z,8.10
2018-09-19T05:03:45.912Z,8.60
2018-09-19T05:04:45.851Z,7.50
2018-09-19T05:05:45.810Z,7.50
2018-09-19T05:06:45.736Z,7.10
2018-09-19T05:07:45.666Z,5.90
2018-09-19T05:08:45.608Z,6.00
2018-09-19T05:09:45.544Z,6.80
2018-09-19T05:10:45.496Z,10.10
2018-09-19T05:11:45.428Z,7.90
2018-09-19T05:12:45.365Z,6.90
2018-09-19T05:13:45.304Z,5.90
2018-09-19T05:14:45.247Z,6.70
2018-09-19T05:15:45.185Z,8.00
2018-09-19T05:16:45.121Z,6.20
2018-09-19T05:17:45.062Z,6.90
2018-09-19T05:18:45.002Z,6.50
2018-09-19T05:19:44.943Z,6.10
2018-09-19T05:20:44.876Z,6.80
2018-09-19T05:21:44.818Z,8.70
2018-09-19T05:22:44.758Z,7.30
2018-09-19T05:23:44.697Z,6.70
2018-09-19T05:24:44.635Z,6.50
2018-09-19T05:25:44.584Z,6.70
2018-09-19T05:26:44.515Z,7.70
2018-09-19T05:27:44.453Z,6.50
2018-09-19T05:28:44.393Z,8.40
2018-09-19T05:29:44.337Z,5.90
2018-09-19T05:30:44.274Z,7.00
2018-09-19T05:31:44.290Z,9.30
2018-09-19T05:32:44.152Z,7.40
2018-09-19T05:33:44.090Z,7.30
2018-09-19T05:34:44.032Z,10.30
2018-09-19T05:35:43.985Z,7.70
2018-09-19T05:36:43.910Z,6.50
2018-09-19T05:37:43.851Z,6.50
2018-09-19T05:38:43.799Z,7.70
2018-09-19T05:39:43.727Z,6.40
2018-09-19T05:40:43.668Z,7.80
2018-09-19T05:41:43.605Z,9.30
2018-09-19T05:42:43.545Z,10.10
2018-09-19T05:43:43.490Z,8.90
2018-09-19T05:44:43.424Z,8.50
2018-09-19T05:45:43.368Z,9.20
2018-09-19T05:46:43.303Z,7.70
2018-09-19T05:47:43.245Z,9.00
2018-09-19T05:48:43.181Z,8.30
2018-09-19T05:49:43.123Z,8.10
2018-09-19T05:50:43.062Z,7.30
2018-09-19T05:51:43.021Z,8.60
2018-09-19T05:52:42.940Z,8.60
2018-09-19T05:53:42.882Z,7.40
2018-09-19T05:54:42.819Z,9.10
2018-09-19T05:55:42.758Z,9.00
2018-09-19T05:56:42.705Z,8.50
2018-09-19T05:57:42.650Z,10.60
2018-09-19T05:58:42.576Z,11.20
2018-09-19T05:59:42.517Z,11.70
2018-09-19T06:00:42.461Z,7.70
2018-09-19T06:01:42.398Z,8.20
2018-09-19T06:02:42.337Z,6.90
2018-09-19T06:03:42.274Z,9.10
2018-09-19T06:04:42.218Z,7.30
2018-09-19T06:05:42.152Z,7.00
2018-09-19T06:06:42.093Z,8.50
2018-09-19T06:07:42.032Z,9.90
2018-09-19T06:08:41.973Z,8.60
2018-09-19T06:09:41.911Z,6.60
2018-09-19T06:10:41.850Z,8.90
2018-09-19T06:11:41.789Z,8.00
2018-09-19T06:12:41.781Z,6.70
2018-09-19T06:13:41.671Z,8.60
2018-09-19T06:14:41.608Z,12.60
2018-09-19T06:15:41.548Z,9.90
2018-09-19T06:16:41.489Z,7.40
2018-09-19T06:17:41.428Z,10.50
2018-09-19T06:18:41.374Z,9.10
2018-09-19T06:19:41.306Z,8.00
2018-09-19T06:20:41.251Z,7.90
2018-09-19T06:21:41.186Z,7.60
2018-09-19T06:22:41.129Z,7.80
2018-09-19T06:23:41.067Z,6.40
2018-09-19T06:24:41.014Z,8.40
2018-09-19T06:25:40.944Z,7.90
2018-09-19T06:26:40.886Z,8.30
2018-09-19T06:27:40.821Z,7.20
2018-09-19T06:28:40.768Z,6.70
2018-09-19T06:29:40.703Z,6.90
2018-09-19T06:30:40.642Z,6.80
2018-09-19T06:31:40.581Z,9.10
2018-09-19T06:32:40.537Z,7.40
2018-09-19T06:33:40.464Z,7.20
2018-09-19T06:34:40.404Z,6.30
2018-09-19T06:35:40.344Z,7.80
2018-09-19T06:36:40.283Z,7.00
2018-09-19T06:37:40.223Z,8.70
2018-09-19T06:38:40.190Z,8.30
2018-09-19T06:39:40.103Z,8.00
2018-09-19T06:40:40.142Z,10.40
2018-09-19T06:41:39.986Z,10.40
2018-09-19T06:42:39.923Z,8.70
2018-09-19T06:43:39.878Z,9.90
2018-09-19T06:44:39.804Z,10.30
2018-09-19T06:45:39.764Z,11.20
2018-09-19T06:46:39.682Z,7.80
2018-09-19T06:47:39.621Z,7.50
2018-09-19T06:48:39.563Z,8.90
2018-09-19T06:49:39.530Z,8.70
2018-09-19T06:50:39.443Z,7.20
2018-09-19T06:51:39.381Z,8.00
2018-09-19T06:52:39.324Z,9.30
2018-09-19T06:53:39.262Z,8.70
2018-09-19T06:54:39.201Z,6.10
2018-09-19T06:55:39.141Z,7.40
2018-09-19T06:56:39.080Z,6.80
2018-09-19T06:57:39.022Z,6.10
2018-09-19T06:58:38.967Z,7.80
2018-09-19T06:59:38.963Z,7.30
2018-09-19T07:00:38.840Z,7.60
2018-09-19T07:01:38.783Z,7.80
2018-09-19T07:02:38.720Z,11.50
2018-09-19T07:03:38.662Z,9.10
2018-09-19T07:04:38.608Z,7.40
2018-09-19T07:05:38.578Z,9.20
2018-09-19T07:06:38.486Z,10.30
2018-09-19T07:07:38.423Z,6.70
2018-09-19T07:08:38.365Z,6.10
2018-09-19T07:09:38.305Z,7.50
2018-09-19T07:10:38.343Z,8.20
2018-09-19T07:11:38.182Z,6.40
2018-09-19T07:12:38.130Z,7.30
2018-09-19T07:13:38.066Z,7.50
2018-09-19T07:14:38.011Z,7.10
2018-09-19T07:15:37.946Z,8.30
2018-09-19T07:16:37.889Z,6.70
2018-09-19T07:17:37.832Z,6.60
2018-09-19T07:18:37.768Z,8.70
2018-09-19T07:19:37.706Z,6.30
2018-09-19T07:20:37.646Z,12.00
2018-09-19T07:21:37.588Z,8.20
2018-09-19T07:22:37.529Z,6.80
2018-09-19T07:23:37.538Z,7.40
2018-09-19T07:24:37.411Z,11.10
2018-09-19T07:25:37.349Z,7.10
2018-09-19T07:26:37.293Z,6.60
2018-09-19T07:27:37.229Z,7.70
2018-09-19T07:28:37.170Z,9.30
2018-09-19T07:29:37.116Z,7.90
2018-09-19T07:30:37.056Z,6.50
2018-09-19T07:31:36.997Z,6.00
2018-09-19T07:32:36.934Z,6.70
2018-09-19T07:33:36.875Z,8.00
2018-09-19T07:34:36.814Z,6.90
2018-09-19T07:35:36.756Z,7.80
2018-09-19T07:36:36.701Z,6.30
2018-09-19T07:37:36.636Z,7.30
2018-09-19T07:38:36.577Z,7.60
2018-09-19T07:39:36.516Z,7.30
2018-09-19T07:40:36.461Z,7.00
2018-09-19T07:41:36.758Z,6.80
2018-09-19T07:42:36.340Z,11.10
2018-09-19T07:43:36.283Z,9.00
2018-09-19T07:44:36.223Z,8.90
2018-09-19T07:45:36.170Z,7.40
2018-09-19T07:46:36.149Z,8.40
2018-09-19T07:47:36.044Z,6.80
2018-09-19T07:48:35.986Z,8.60
2018-09-19T07:49:35.929Z,9.60
2018-09-19T07:50:35.868Z,6.50
2018-09-19T07:51:35.808Z,11.40
2018-09-19T07:52:35.749Z,8.90
2018-09-19T07:53:35.693Z,9.90
2018-09-19T07:54:35.677Z,9.70
2018-09-19T07:55:35.573Z,6.70
2018-09-19T07:56:35.533Z,8.40
2018-09-19T07:57:35.471Z,8.40
2018-09-19T07:58:35.406Z,7.60
2018-09-19T07:59:35.338Z,8.00
2018-09-19T08:00:44.722Z,8.20
2018-09-19T08:02:28.584Z,8.40
2018-09-19T08:03:28.491Z,8.20
2018-09-19T08:04:28.434Z,6.20
2018-09-19T08:05:28.378Z,7.30
2018-09-19T08:06:28.313Z,6.70
2018-09-19T08:07:28.253Z,7.50
2018-09-19T08:08:28.195Z,6.40
2018-09-19T08:09:28.139Z,6.00
2018-09-19T08:10:28.132Z,6.60
2018-09-19T08:11:28.020Z,8.00
2018-09-19T08:12:28.007Z,6.40
2018-09-19T08:13:27.903Z,6.50
2018-09-19T08:14:27.842Z,6.60
2018-09-19T08:15:27.785Z,7.10
2018-09-19T08:16:27.726Z,7.20
2018-09-19T08:17:27.669Z,6.60
2018-09-19T08:18:27.609Z,6.60
2018-09-19T08:19:27.554Z,6.20
2018-09-19T08:20:27.493Z,6.50
2018-09-19T08:21:27.435Z,6.80
2018-09-19T08:22:27.415Z,6.50
2018-09-19T08:23:27.319Z,6.50
2018-09-19T08:24:27.258Z,6.50
2018-09-19T08:25:27.204Z,7.70
2018-09-19T08:26:27.142Z,6.60
2018-09-19T08:27:27.088Z,10.10
2018-09-19T08:28:27.028Z,7.70
2018-09-19T08:29:26.970Z,6.30
2018-09-19T08:30:26.905Z,6.20
2018-09-19T08:31:26.852Z,6.60
2018-09-19T08:32:26.794Z,6.40
2018-09-19T08:33:26.737Z,6.10
2018-09-19T08:34:26.677Z,9.00
2018-09-19T08:35:26.619Z,6.00
2018-09-19T08:36:26.562Z,6.10
2018-09-19T08:37:26.505Z,5.90
2018-09-19T08:38:26.447Z,6.10
2018-09-19T08:39:26.388Z,6.00
2018-09-19T08:40:26.331Z,6.70
2018-09-19T08:41:26.274Z,6.60
2018-09-19T08:42:26.214Z,7.60
2018-09-19T08:43:26.160Z,5.80
2018-09-19T08:44:26.101Z,6.60
2018-09-19T08:45:26.042Z,5.80
2018-09-19T08:46:25.986Z,5.80
2018-09-19T08:47:25.929Z,21.90
2018-09-19T08:48:25.874Z,10.40
2018-09-19T08:49:25.812Z,12.70
2018-09-19T08:50:25.797Z,10.80
2018-09-19T08:51:25.698Z,5.70
2018-09-19T08:52:25.639Z,7.00
2018-09-19T08:53:25.582Z,8.50
2018-09-19T08:54:25.528Z,7.50
2018-09-19T08:55:25.468Z,9.10
2018-09-19T08:56:25.409Z,6.70
2018-09-19T08:57:25.355Z,6.90
2018-09-19T08:58:25.295Z,6.30
2018-09-19T08:59:25.238Z,6.00
2018-09-19T09:00:25.181Z,5.40
2018-09-19T09:01:25.124Z,7.80
2018-09-19T09:02:25.070Z,6.30
2018-09-19T09:03:25.009Z,9.00
2018-09-19T09:04:24.954Z,7.90
2018-09-19T09:05:25.004Z,6.00
2018-09-19T09:06:24.837Z,5.60
2018-09-19T09:07:24.784Z,8.10
2018-09-19T09:08:24.730Z,5.70
2018-09-19T09:09:24.667Z,5.70
2018-09-19T09:10:24.613Z,5.80
2018-09-19T09:11:24.555Z,5.70
2018-09-19T09:12:24.520Z,7.20
2018-09-19T09:13:24.455Z,5.60
2018-09-19T09:14:24.382Z,6.80
2018-09-19T09:15:24.324Z,6.20
2018-09-19T09:16:24.271Z,6.50
2018-09-19T09:17:24.216Z,5.40
2018-09-19T09:18:24.155Z,6.10
2018-09-19T09:19:24.100Z,5.10
2018-09-19T09:20:24.044Z,5.10
2018-09-19T09:21:23.985Z,8.20
2018-09-19T09:22:23.928Z,5.90
2018-09-19T09:23:23.867Z,5.90
2018-09-19T09:24:23.819Z,5.70
2018-09-19T09:25:23.757Z,4.90
2018-09-19T09:26:23.697Z,5.90
2018-09-19T09:27:23.664Z,5.70
2018-09-19T09:28:23.585Z,6.70
2018-09-19T09:29:23.530Z,6.20
2018-09-19T09:30:23.496Z,6.60
2018-09-19T09:31:23.415Z,6.50
2018-09-19T09:32:23.359Z,6.00
2018-09-19T09:33:23.300Z,5.80
2018-09-19T09:34:23.321Z,5.70
2018-09-19T09:35:23.221Z,5.70
2018-09-19T09:36:23.131Z,4.70
2018-09-19T09:37:23.073Z,5.20
2018-09-19T09:38:23.020Z,6.60
2018-09-19T09:39:22.965Z,6.90
2018-09-19T09:40:22.954Z,5.80
2018-09-19T09:41:22.846Z,7.80
2018-09-19T09:42:22.789Z,5.90
2018-09-19T09:43:22.783Z,7.20
2018-09-19T09:44:22.676Z,7.30
2018-09-19T09:45:22.621Z,7.30
2018-09-19T09:46:22.561Z,8.00
2018-09-19T09:47:22.504Z,7.10
2018-09-19T09:48:22.448Z,7.50
2018-09-19T09:49:22.392Z,6.00
2018-09-19T09:50:22.399Z,8.20
2018-09-19T09:51:22.305Z,9.20
2018-09-19T09:52:22.220Z,7.10
2018-09-19T09:53:22.237Z,9.50
2018-09-19T09:54:22.105Z,8.50
2018-09-19T09:55:22.057Z,8.70
2018-09-19T09:56:21.991Z,7.80
2018-09-19T09:57:21.935Z,8.30
2018-09-19T09:58:21.878Z,9.00
2018-09-19T09:59:21.819Z,7.30
2018-09-19T10:00:21.765Z,7.70
2018-09-19T10:01:21.707Z,6.30
2018-09-19T10:02:21.648Z,8.60
2018-09-19T10:03:21.595Z,6.90
2018-09-19T10:04:21.536Z,5.40
2018-09-19T10:05:21.491Z,5.60
2018-09-19T10:06:21.453Z,5.80
2018-09-19T10:07:21.364Z,7.60
2018-09-19T10:08:21.309Z,7.10
2018-09-19T10:09:21.256Z,12.00
2018-09-19T10:10:21.194Z,9.00
2018-09-19T10:11:21.141Z,11.20
2018-09-19T10:12:21.079Z,11.40
2018-09-19T10:13:21.024Z,9.10
2018-09-19T10:14:20.965Z,7.30
2018-09-19T10:15:20.911Z,9.70
2018-09-19T10:16:20.852Z,8.10
2018-09-19T10:17:20.795Z,9.50
2018-09-19T10:18:20.735Z,8.30
2018-09-19T10:19:20.678Z,9.40
2018-09-19T10:20:20.622Z,9.00
2018-09-19T10:21:20.564Z,8.80
2018-09-19T10:22:20.505Z,9.90
2018-09-19T10:23:20.461Z,10.50
2018-09-19T10:24:20.391Z,9.00
2018-09-19T10:25:20.334Z,9.40
2018-09-19T10:26:20.276Z,7.90
2018-09-19T10:27:20.221Z,7.40
2018-09-19T10:28:20.162Z,10.10
2018-09-19T10:29:20.112Z,9.60
2018-09-19T10:30:20.047Z,7.30
2018-09-19T10:31:19.988Z,8.40
2018-09-19T10:32:19.931Z,8.00
2018-09-19T10:33:19.873Z,9.40
2018-09-19T10:34:19.819Z,8.10
2018-09-19T10:35:20.148Z,8.00
2018-09-19T10:36:19.701Z,7.20
2018-09-19T10:37:19.644Z,7.80
2018-09-19T10:38:19.585Z,5.90
2018-09-19T10:39:19.528Z,7.80
2018-09-19T10:40:19.472Z,6.00
2018-09-19T10:41:19.415Z,7.60
2018-09-19T10:42:19.357Z,6.40
2018-09-19T10:43:19.299Z,10.90
2018-09-19T10:44:19.242Z,8.80
2018-09-19T10:45:19.184Z,7.70
2018-09-19T10:46:19.127Z,9.20
2018-09-19T10:47:19.069Z,8.40
2018-09-19T10:48:19.013Z,7.80
2018-09-19T10:49:19.002Z,7.40
2018-09-19T10:50:18.899Z,7.40
2018-09-19T10:51:18.843Z,5.50
2018-09-19T10:52:18.787Z,5.40
2018-09-19T10:53:18.727Z,6.10
2018-09-19T10:54:18.680Z,7.50
2018-09-19T10:55:18.613Z,7.60
2018-09-19T10:56:18.559Z,7.40
2018-09-19T10:57:18.503Z,5.40
2018-09-19T10:58:18.442Z,4.70
2018-09-19T10:59:18.385Z,5.00
2018-09-19T11:00:18.329Z,5.00
2018-09-19T11:01:18.275Z,4.80
2018-09-19T11:02:18.215Z,6.20
2018-09-19T11:03:18.159Z,6.50
2018-09-19T11:04:18.115Z,5.20
2018-09-19T11:05:18.052Z,5.40
2018-09-19T11:06:17.991Z,5.20
2018-09-19T11:07:17.936Z,5.90
2018-09-19T11:08:17.884Z,5.30
2018-09-19T11:09:17.825Z,5.60
2018-09-19T11:10:17.766Z,5.40
2018-09-19T11:11:17.713Z,5.00
2018-09-19T11:12:17.653Z,4.90
2018-09-19T11:13:17.598Z,5.50
2018-09-19T11:14:17.541Z,7.00
2018-09-19T11:15:17.485Z,7.50
2018-09-19T11:16:17.429Z,6.40
2018-09-19T11:17:17.374Z,5.80
2018-09-19T11:18:17.318Z,5.50
2018-09-19T11:19:17.262Z,5.10
2018-09-19T11:20:17.203Z,6.50
2018-09-19T11:21:17.166Z,5.60
2018-09-19T11:22:17.093Z,5.40
2018-09-19T11:23:17.037Z,6.90
2018-09-19T11:24:16.982Z,5.70
2018-09-19T11:25:16.925Z,6.00
2018-09-19T11:26:16.888Z,6.30
2018-09-19T11:27:16.808Z,5.00
2018-09-19T11:28:16.757Z,5.00
2018-09-19T11:29:16.701Z,5.10
2018-09-19T11:30:16.644Z,5.30
2018-09-19T11:31:16.588Z,5.30
2018-09-19T11:32:16.532Z,5.40
2018-09-19T11:33:16.477Z,6.50
2018-09-19T11:34:16.422Z,4.70
2018-09-19T11:35:16.365Z,4.40
2018-09-19T11:36:16.308Z,5.00
2018-09-19T11:37:16.254Z,4.60
2018-09-19T11:38:16.199Z,4.60
2018-09-19T11:39:16.143Z,4.60
2018-09-19T11:40:16.086Z,5.10
2018-09-19T11:41:16.030Z,5.40
2018-09-19T11:42:15.975Z,5.10
2018-09-19T11:43:15.953Z,5.10
2018-09-19T11:44:15.862Z,6.70
2018-09-19T11:45:15.808Z,4.70
2018-09-19T11:46:15.752Z,5.80
2018-09-19T11:47:15.697Z,5.10
2018-09-19T11:48:15.637Z,5.70
2018-09-19T11:49:15.583Z,6.20
2018-09-19T11:50:15.527Z,6.10
2018-09-19T11:51:15.471Z,5.20
2018-09-19T11:52:15.414Z,5.80
2018-09-19T11:53:15.358Z,4.70
2018-09-19T11:54:15.304Z,6.60
2018-09-19T11:55:15.249Z,6.10
2018-09-19T11:56:15.191Z,4.70
2018-09-19T11:57:15.136Z,5.30
2018-09-19T11:58:15.079Z,6.80
2018-09-19T11:59:15.022Z,4.70
2018-09-19T12:00:14.968Z,4.60
2018-09-19T12:01:14.912Z,5.30
2018-09-19T12:02:14.856Z,4.40
2018-09-19T12:03:14.800Z,4.30
2018-09-19T12:04:14.747Z,4.90
2018-09-19T12:05:14.692Z,4.70
2018-09-19T12:06:14.631Z,7.50
2018-09-19T12:07:14.613Z,5.80
2018-09-19T12:08:14.521Z,4.60
2018-09-19T12:09:14.465Z,5.10
2018-09-19T12:10:14.409Z,7.90
2018-09-19T12:11:14.355Z,5.00
2018-09-19T12:12:14.300Z,5.10
2018-09-19T12:13:14.242Z,7.70
2018-09-19T12:14:14.187Z,6.40
2018-09-19T12:15:14.130Z,7.20
2018-09-19T12:16:14.104Z,5.00
2018-09-19T12:17:14.019Z,5.00
2018-09-19T12:18:13.963Z,6.90
2018-09-19T12:19:13.907Z,6.40
2018-09-19T12:20:13.854Z,4.80
2018-09-19T12:21:13.795Z,4.60
2018-09-19T12:22:13.742Z,5.20
2018-09-19T12:23:13.683Z,4.70
2018-09-19T12:24:13.627Z,5.00
2018-09-19T12:25:13.567Z,7.00
2018-09-19T12:26:13.530Z,7.30
2018-09-19T12:27:13.461Z,4.30
2018-09-19T12:28:13.406Z,5.90
2018-09-19T12:29:13.353Z,5.50
2018-09-19T12:30:13.294Z,5.60
2018-09-19T12:31:13.237Z,5.60
2018-09-19T12:32:13.185Z,5.30
2018-09-19T12:33:13.179Z,5.90
2018-09-19T12:34:13.068Z,4.70
2018-09-19T12:35:13.012Z,7.00
2018-09-19T12:36:12.957Z,6.00
2018-09-19T12:37:12.902Z,4.90
2018-09-19T12:38:12.847Z,5.20
2018-09-19T12:39:12.790Z,5.30
2018-09-19T12:40:12.736Z,4.50
2018-09-19T12:41:12.676Z,4.90
2018-09-19T12:42:12.622Z,6.30
2018-09-19T12:43:12.565Z,5.20
2018-09-19T12:44:12.511Z,4.10
2018-09-19T12:45:12.456Z,4.10
2018-09-19T12:46:12.398Z,5.40
2018-09-19T12:47:12.343Z,4.40
2018-09-19T12:48:12.287Z,5.30
2018-09-19T12:49:12.260Z,6.10
2018-09-19T12:50:12.175Z,5.20
2018-09-19T12:51:12.118Z,6.20
2018-09-19T12:52:12.065Z,4.90
2018-09-19T12:53:12.053Z,4.90
2018-09-19T12:54:11.952Z,5.80
2018-09-19T12:55:11.898Z,6.40
2018-09-19T12:56:11.843Z,6.20
2018-09-19T12:57:11.786Z,7.00
2018-09-19T12:58:11.730Z,5.40
2018-09-19T12:59:11.675Z,5.50
2018-09-19T13:00:11.619Z,5.00
2018-09-19T13:01:11.564Z,5.30
2018-09-19T13:02:11.507Z,4.50
2018-09-19T13:03:11.453Z,6.00
2018-09-19T13:04:11.398Z,4.40
2018-09-19T13:05:11.343Z,4.20
2018-09-19T13:06:11.285Z,4.60
2018-09-19T13:07:11.228Z,4.50
2018-09-19T13:08:11.172Z,4.40
2018-09-19T13:09:11.118Z,5.50
2018-09-19T13:10:11.061Z,4.40
2018-09-19T13:11:11.008Z,5.30
2018-09-19T13:12:10.949Z,7.00
2018-09-19T13:13:10.896Z,4.20
2018-09-19T13:14:10.838Z,5.10
2018-09-19T13:15:10.782Z,6.50
2018-09-19T13:16:10.728Z,4.20
2018-09-19T13:17:10.671Z,5.10
2018-09-19T13:18:10.616Z,4.90